createdAt,value
2019-02-02T00:01:53.060Z,4.86
2019-02-02T00:04:22.548Z,5.00
2019-02-02T00:06:52.151Z,5.00
2019-02-02T00:09:21.565Z,4.83
2019-02-02T00:11:51.055Z,4.88
2019-02-02T00:14:20.490Z,4.93
2019-02-02T00:16:50.101Z,4.90
2019-02-02T00:19:19.508Z,4.70
2019-02-02T00:21:48.894Z,4.87
2019-02-02T00:24:18.477Z,4.86
2019-02-02T00:26:47.840Z,4.90
2019-02-02T00:29:17.219Z,4.91
2019-02-02T00:31:46.647Z,4.95
2019-02-02T00:34:16.022Z,4.91
2019-02-02T00:36:45.453Z,4.87
2019-02-02T00:39:14.836Z,4.70
2019-02-02T00:41:44.334Z,4.79
2019-02-02T00:44:14.108Z,4.70
2019-02-02T00:46:43.630Z,4.74
2019-02-02T00:49:13.141Z,4.84
2019-02-02T00:51:42.537Z,4.79
2019-02-02T00:54:11.999Z,4.84
2019-02-02T00:56:41.462Z,4.89
2019-02-02T00:59:10.886Z,4.96
2019-02-02T01:01:40.330Z,4.68
2019-02-02T01:04:10.487Z,4.64
2019-02-02T01:06:40.176Z,4.56
2019-02-02T01:09:25.843Z,4.60
2019-02-02T01:11:55.443Z,4.64
2019-02-02T01:14:24.920Z,4.73
2019-02-02T01:16:54.673Z,4.60
2019-02-02T01:19:24.054Z,4.63
2019-02-02T01:21:53.462Z,4.60
2019-02-02T01:24:22.974Z,4.62
2019-02-02T01:26:52.451Z,4.58
2019-02-02T01:29:21.841Z,4.42
2019-02-02T01:31:51.289Z,4.44
2019-02-02T01:34:20.812Z,4.48
2019-02-02T01:36:50.235Z,4.53
2019-02-02T01:39:19.664Z,4.48
2019-02-02T01:41:49.037Z,4.46
2019-02-02T01:44:18.548Z,4.56
2019-02-02T01:46:47.940Z,4.57
2019-02-02T01:49:17.442Z,4.64
2019-02-02T01:51:46.870Z,4.63
2019-02-02T01:54:16.281Z,4.80
2019-02-02T01:56:45.881Z,4.66
2019-02-02T01:59:15.412Z,4.73
2019-02-02T02:01:44.997Z,4.79
2019-02-02T02:04:14.413Z,4.76
2019-02-02T02:06:43.955Z,4.79
2019-02-02T02:09:13.409Z,4.86
2019-02-02T02:11:42.809Z,4.80
2019-02-02T02:14:12.232Z,4.70
2019-02-02T02:16:41.928Z,4.63
2019-02-02T02:19:11.461Z,4.53
2019-02-02T02:21:40.875Z,4.53
2019-02-02T02:24:10.344Z,4.50
2019-02-02T02:26:39.863Z,4.41
2019-02-02T02:29:09.337Z,4.39
2019-02-02T02:31:38.755Z,4.46
2019-02-02T02:34:08.148Z,4.53
2019-02-02T02:36:37.523Z,4.55
2019-02-02T02:39:09.464Z,4.68
2019-02-02T02:41:38.849Z,4.79
2019-02-02T02:44:08.353Z,4.81
2019-02-02T02:46:37.739Z,4.58
2019-02-02T02:49:07.125Z,4.62
2019-02-02T02:51:36.654Z,4.58
2019-02-02T02:54:06.804Z,4.52
2019-02-02T02:56:36.487Z,4.50
2019-02-02T02:59:06.140Z,4.65
2019-02-02T03:01:35.604Z,4.73
2019-02-02T03:04:05.236Z,4.69
2019-02-02T03:06:34.635Z,4.69
2019-02-02T03:09:06.779Z,4.76
2019-02-02T03:11:36.195Z,4.69
2019-02-02T03:14:05.716Z,4.63
2019-02-02T03:16:35.098Z,4.53
2019-02-02T03:19:04.522Z,4.54
2019-02-02T03:21:33.977Z,4.64
2019-02-02T03:24:03.427Z,4.54
2019-02-02T03:26:32.843Z,4.53
2019-02-02T03:29:02.243Z,4.47
2019-02-02T03:31:31.760Z,4.28
2019-02-02T03:34:01.154Z,4.27
2019-02-02T03:36:30.619Z,4.04
2019-02-02T03:39:00.019Z,4.11
2019-02-02T03:41:29.501Z,4.15
2019-02-02T03:43:58.939Z,4.22
2019-02-02T03:46:28.421Z,4.14
2019-02-02T03:48:57.840Z,4.21
2019-02-02T03:51:27.315Z,4.23
2019-02-02T03:54:08.208Z,4.13
2019-02-02T03:56:27.823Z,4.15
2019-02-02T03:59:05.923Z,4.04
2019-02-02T04:01:30.221Z,4.06
2019-02-02T04:03:59.867Z,3.92
2019-02-02T04:06:29.223Z,4.10
2019-02-02T04:08:58.637Z,4.14
2019-02-02T04:11:28.028Z,4.13
2019-02-02T04:13:57.436Z,3.95
2019-02-02T04:16:26.819Z,4.05
2019-02-02T04:18:56.510Z,3.94
2019-02-02T04:21:26.032Z,3.98
2019-02-02T04:23:55.496Z,3.90
2019-02-02T04:26:25.044Z,3.82
2019-02-02T04:28:54.794Z,3.90
2019-02-02T04:31:24.307Z,3.82
2019-02-02T04:33:53.809Z,3.81
2019-02-02T04:36:23.277Z,3.87
2019-02-02T04:38:52.796Z,4.09
2019-02-02T04:41:22.211Z,4.06
2019-02-02T04:43:51.630Z,4.13
2019-02-02T04:46:21.023Z,4.21
2019-02-02T04:48:50.439Z,4.08
2019-02-02T04:51:19.960Z,4.16
2019-02-02T04:53:49.484Z,4.16
2019-02-02T04:56:18.997Z,4.16
2019-02-02T04:58:48.421Z,4.09
2019-02-02T05:01:17.970Z,4.05
2019-02-02T05:03:47.387Z,4.02
2019-02-02T05:06:16.797Z,4.11
2019-02-02T05:08:46.170Z,4.24
2019-02-02T05:11:15.857Z,4.23
2019-02-02T05:13:45.247Z,4.19
2019-02-02T05:16:14.683Z,4.22
2019-02-02T05:18:44.093Z,4.25
2019-02-02T05:21:13.496Z,4.33
2019-02-02T05:23:42.942Z,4.29
2019-02-02T05:26:12.359Z,4.39
2019-02-02T05:28:41.835Z,4.22
2019-02-02T05:31:11.272Z,4.25
2019-02-02T05:33:40.721Z,4.21
2019-02-02T05:36:10.126Z,4.34
2019-02-02T05:38:39.719Z,4.31
2019-02-02T05:41:09.152Z,4.18
2019-02-02T05:43:38.535Z,4.14
2019-02-02T05:46:07.935Z,3.97
2019-02-02T05:48:37.331Z,3.89
2019-02-02T05:51:06.763Z,3.97
2019-02-02T05:53:36.142Z,4.23
2019-02-02T05:56:05.984Z,4.26
2019-02-02T05:58:35.418Z,4.39
2019-02-02T06:01:05.942Z,4.35
2019-02-02T06:03:35.375Z,4.40
2019-02-02T06:06:04.759Z,4.35
2019-02-02T06:08:34.286Z,4.40
2019-02-02T06:11:03.697Z,4.40
2019-02-02T06:13:33.197Z,4.41
2019-02-02T06:16:02.578Z,4.41
2019-02-02T06:18:32.172Z,4.16
2019-02-02T06:21:01.581Z,4.22
2019-02-02T06:23:30.963Z,4.19
2019-02-02T06:26:00.376Z,4.27
2019-02-02T06:28:29.826Z,4.15
2019-02-02T06:31:00.223Z,4.24
2019-02-02T06:33:29.683Z,4.27
2019-02-02T06:35:59.130Z,4.17
2019-02-02T06:38:28.609Z,4.25
2019-02-02T06:40:58.148Z,4.13
2019-02-02T06:43:30.287Z,3.95
2019-02-02T06:45:58.758Z,4.10
2019-02-02T06:48:28.123Z,4.21
2019-02-02T06:50:57.531Z,4.24
2019-02-02T06:53:26.940Z,4.28
2019-02-02T06:55:56.318Z,4.26
2019-02-02T06:58:25.831Z,4.29
2019-02-02T07:00:55.353Z,4.21
2019-02-02T07:03:24.775Z,4.24
2019-02-02T07:05:54.141Z,4.22
2019-02-02T07:08:23.551Z,4.32
2019-02-02T07:10:52.919Z,4.38
2019-02-02T07:13:22.290Z,4.37
2019-02-02T07:15:51.755Z,4.27
2019-02-02T07:18:21.147Z,4.44
2019-02-02T07:20:50.632Z,4.39
2019-02-02T07:23:20.019Z,4.36
2019-02-02T07:25:49.468Z,4.40
2019-02-02T07:28:18.872Z,4.46
2019-02-02T07:30:48.389Z,4.50
2019-02-02T07:33:17.858Z,4.46
2019-02-02T07:35:47.253Z,4.61
2019-02-02T07:38:16.655Z,4.57
2019-02-02T07:40:46.378Z,4.67
2019-02-02T07:43:15.778Z,4.60
2019-02-02T07:45:45.228Z,4.61
2019-02-02T07:48:14.598Z,4.69
2019-02-02T07:50:44.044Z,4.67
2019-02-02T07:53:13.514Z,4.75
2019-02-02T07:55:42.980Z,4.81
2019-02-02T07:58:12.510Z,4.71
2019-02-02T08:00:41.911Z,4.85
2019-02-02T08:03:12.822Z,4.81
2019-02-02T08:05:42.195Z,4.58
2019-02-02T08:08:11.637Z,4.37
2019-02-02T08:10:41.011Z,4.24
2019-02-02T08:13:10.502Z,4.44
2019-02-02T08:15:40.036Z,4.34
2019-02-02T08:18:09.427Z,4.15
2019-02-02T08:20:38.826Z,4.22
2019-02-02T08:23:08.216Z,4.38
2019-02-02T08:25:37.618Z,4.33
2019-02-02T08:28:08.197Z,4.42
2019-02-02T08:30:37.684Z,4.50
2019-02-02T08:33:07.851Z,4.38
2019-02-02T08:35:37.372Z,4.44
2019-02-02T08:38:06.958Z,4.53
2019-02-02T08:40:36.459Z,4.70
2019-02-02T08:43:05.847Z,4.83
2019-02-02T08:45:35.241Z,4.90
2019-02-02T08:48:04.865Z,5.01
2019-02-02T08:50:36.815Z,4.95
2019-02-02T08:53:06.537Z,4.84
2019-02-02T08:55:35.956Z,4.59
2019-02-02T08:58:05.824Z,4.61
2019-02-02T09:00:35.502Z,4.41
2019-02-02T09:03:05.279Z,4.44
2019-02-02T09:05:34.707Z,4.58
2019-02-02T09:08:04.199Z,4.39
2019-02-02T09:10:33.635Z,4.44
2019-02-02T09:13:03.130Z,4.41
2019-02-02T09:15:32.510Z,4.38
2019-02-02T09:18:01.955Z,4.52
2019-02-02T09:20:31.431Z,4.72
2019-02-02T09:23:06.235Z,4.69
2019-02-02T09:25:32.263Z,4.81
2019-02-02T09:28:03.378Z,5.04
2019-02-02T09:30:35.212Z,5.05
2019-02-02T09:33:05.185Z,5.05
2019-02-02T09:35:34.583Z,5.10
2019-02-02T09:38:04.071Z,5.17
2019-02-02T09:40:33.491Z,5.12
2019-02-02T09:43:02.900Z,5.02
2019-02-02T09:45:32.312Z,5.10
2019-02-02T09:48:03.361Z,4.96
2019-02-02T09:50:33.153Z,5.02
2019-02-02T09:53:02.562Z,5.06
2019-02-02T09:55:31.943Z,5.13
2019-02-02T09:58:04.943Z,5.15
2019-02-02T10:00:34.340Z,5.16
2019-02-02T10:03:03.763Z,5.29
2019-02-02T10:05:33.252Z,5.22
2019-02-02T10:08:02.775Z,5.12
2019-02-02T10:10:34.095Z,5.23
2019-02-02T10:13:05.385Z,5.12
2019-02-02T10:15:34.813Z,5.17
2019-02-02T10:18:05.296Z,4.94
2019-02-02T10:20:34.753Z,4.94
2019-02-02T10:23:04.667Z,4.95
2019-02-02T10:25:34.059Z,5.06
2019-02-02T10:28:03.433Z,5.18
2019-02-02T10:30:43.895Z,5.36
2019-02-02T10:33:14.663Z,5.46
2019-02-02T10:35:44.474Z,5.51
2019-02-02T10:38:13.899Z,5.35
2019-02-02T10:40:43.292Z,5.07
2019-02-02T10:43:12.996Z,5.18
2019-02-02T10:45:42.381Z,5.16
2019-02-02T10:48:11.779Z,5.25
2019-02-02T10:50:41.165Z,5.21
2019-02-02T10:53:10.699Z,5.15
2019-02-02T10:55:40.251Z,5.17
2019-02-02T10:58:09.761Z,5.43
2019-02-02T11:00:40.893Z,5.68
2019-02-02T11:03:10.543Z,5.68
2019-02-02T11:05:40.024Z,5.78
2019-02-02T11:08:09.587Z,5.93
2019-02-02T11:10:39.048Z,5.81
2019-02-02T11:13:09.106Z,5.49
2019-02-02T11:15:38.893Z,5.23
2019-02-02T11:18:08.886Z,5.79
2019-02-02T11:20:38.388Z,5.89
2019-02-02T11:23:07.839Z,5.92
2019-02-02T11:25:37.432Z,5.98
2019-02-02T11:28:07.079Z,6.08
2019-02-02T11:30:37.017Z,5.89
2019-02-02T11:33:06.413Z,5.92
2019-02-02T11:35:35.917Z,5.80
2019-02-02T11:38:05.447Z,5.70
2019-02-02T11:40:35.412Z,5.63
2019-02-02T11:43:05.251Z,5.73
2019-02-02T11:45:34.654Z,5.88
2019-02-02T11:48:04.530Z,5.92
2019-02-02T11:50:34.155Z,6.06
2019-02-02T11:53:03.560Z,6.28
2019-02-02T11:55:32.977Z,6.56
2019-02-02T11:58:02.367Z,6.38
2019-02-02T12:00:40.137Z,6.48
2019-02-02T12:03:09.610Z,6.55
2019-02-02T12:05:39.007Z,6.97
2019-02-02T12:08:08.670Z,7.14
2019-02-02T12:10:38.045Z,7.41
2019-02-02T12:13:07.564Z,7.68
2019-02-02T12:15:36.966Z,7.67
2019-02-02T12:18:06.561Z,7.65
2019-02-02T12:20:35.998Z,7.60
2019-02-02T12:23:05.727Z,7.07
2019-02-02T12:25:35.136Z,6.63
2019-02-02T12:28:05.024Z,7.06
2019-02-02T12:30:35.664Z,6.95
2019-02-02T12:33:06.138Z,5.99
2019-02-02T12:35:35.672Z,6.08
2019-02-02T12:38:05.293Z,5.94
2019-02-02T12:40:34.782Z,6.23
2019-02-02T12:43:04.594Z,6.69
2019-02-02T12:45:49.319Z,6.69
2019-02-02T12:48:18.787Z,6.89
2019-02-02T12:50:48.285Z,6.59
2019-02-02T12:53:18.029Z,6.25
2019-02-02T12:55:47.421Z,6.65
2019-02-02T12:58:16.818Z,6.34
2019-02-02T13:00:46.526Z,6.08
2019-02-02T13:03:15.946Z,6.08
2019-02-02T13:05:45.434Z,6.35
2019-02-02T13:08:14.861Z,6.88
2019-02-02T13:10:44.298Z,6.44
2019-02-02T13:13:13.791Z,6.37
2019-02-02T13:15:43.177Z,7.11
2019-02-02T13:18:12.596Z,7.40
2019-02-02T13:20:42.005Z,7.43
2019-02-02T13:23:11.471Z,7.65
2019-02-02T13:25:41.046Z,7.71
2019-02-02T13:28:10.580Z,7.80
2019-02-02T13:30:40.206Z,7.73
2019-02-02T13:33:09.573Z,7.67
2019-02-02T13:35:41.732Z,7.72
2019-02-02T13:38:11.221Z,7.66
2019-02-02T13:40:40.711Z,7.64
2019-02-02T13:43:10.203Z,7.18
2019-02-02T13:45:39.639Z,7.25
2019-02-02T13:48:09.040Z,7.71
2019-02-02T13:50:38.469Z,7.39
2019-02-02T13:53:09.515Z,7.05
2019-02-02T13:55:39.897Z,7.56
2019-02-02T13:58:09.824Z,7.72
2019-02-02T14:00:39.306Z,7.20
2019-02-02T14:03:08.723Z,7.09
2019-02-02T14:05:38.776Z,6.72
2019-02-02T14:08:08.185Z,6.52
2019-02-02T14:10:37.829Z,6.74
2019-02-02T14:13:07.230Z,7.13
2019-02-02T14:15:39.139Z,7.53
2019-02-02T14:18:07.906Z,7.76
2019-02-02T14:20:37.310Z,8.52
2019-02-02T14:23:07.006Z,7.43
2019-02-02T14:25:36.397Z,7.15
2019-02-02T14:28:06.145Z,7.14
2019-02-02T14:30:35.631Z,7.73
2019-02-02T14:33:13.728Z,7.41
2019-02-02T14:35:36.520Z,7.56
2019-02-02T14:38:06.021Z,7.71
2019-02-02T14:40:35.555Z,7.74
2019-02-02T14:43:05.143Z,8.04
2019-02-02T14:45:34.835Z,8.13
2019-02-02T14:48:05.903Z,7.46
2019-02-02T14:50:35.293Z,7.58
2019-02-02T14:53:05.226Z,7.11
2019-02-02T14:55:34.709Z,6.76
2019-02-02T14:58:04.849Z,6.15
2019-02-02T15:00:34.669Z,6.75
2019-02-02T15:03:04.495Z,6.87
2019-02-02T15:05:42.573Z,6.97
2019-02-02T15:08:05.075Z,7.25
2019-02-02T15:10:34.505Z,7.45
2019-02-02T15:13:03.895Z,7.58
2019-02-02T15:15:33.381Z,7.60
2019-02-02T15:18:02.786Z,7.65
2019-02-02T15:20:34.666Z,7.75
2019-02-02T15:23:04.707Z,7.73
2019-02-02T15:25:34.110Z,7.71
2019-02-02T15:28:03.506Z,7.62
2019-02-02T15:30:33.307Z,7.50
2019-02-02T15:33:02.711Z,7.55
2019-02-02T15:35:32.341Z,7.53
2019-02-02T15:38:03.102Z,7.31
2019-02-02T15:40:32.573Z,7.19
2019-02-02T15:43:01.961Z,7.11
2019-02-02T15:45:31.808Z,7.10
2019-02-02T15:48:01.388Z,6.92
2019-02-02T15:50:30.778Z,6.79
2019-02-02T15:53:00.331Z,6.70
2019-02-02T15:55:29.822Z,6.69
2019-02-02T15:57:59.194Z,6.64
2019-02-02T16:00:33.439Z,6.36
2019-02-02T16:03:02.827Z,6.52
2019-02-02T16:05:32.559Z,6.36
2019-02-02T16:08:03.583Z,6.30
2019-02-02T16:10:33.557Z,6.41
2019-02-02T16:13:03.475Z,6.33
2019-02-02T16:15:34.218Z,6.10
2019-02-02T16:18:04.471Z,6.02
2019-02-02T16:20:36.411Z,6.00
2019-02-02T16:23:06.788Z,5.97
2019-02-02T16:25:36.363Z,5.80
2019-02-02T16:28:06.215Z,5.62
2019-02-02T16:30:35.638Z,5.61
2019-02-02T16:33:05.599Z,5.81
2019-02-02T16:35:35.016Z,5.74
2019-02-02T16:38:04.728Z,5.86
2019-02-02T16:40:34.155Z,5.58
2019-02-02T16:43:03.699Z,5.64
2019-02-02T16:45:33.118Z,5.67
2019-02-02T16:48:02.622Z,5.64
2019-02-02T16:50:32.134Z,5.52
2019-02-02T16:53:01.577Z,5.48
2019-02-02T16:55:31.166Z,5.46
2019-02-02T16:58:00.852Z,5.40
2019-02-02T17:00:32.303Z,5.33
2019-02-02T17:03:01.972Z,5.47
2019-02-02T17:05:31.385Z,5.57
2019-02-02T17:08:03.070Z,5.73
2019-02-02T17:10:34.861Z,5.86
2019-02-02T17:13:04.810Z,5.94
2019-02-02T17:15:34.207Z,5.99
2019-02-02T17:18:03.933Z,5.94
2019-02-02T17:20:35.653Z,5.91
2019-02-02T17:23:05.527Z,5.84
2019-02-02T17:25:35.069Z,5.75
2019-02-02T17:28:06.172Z,5.92
2019-02-02T17:30:35.823Z,6.14
2019-02-02T17:33:08.573Z,6.27
2019-02-02T17:35:38.233Z,6.07
2019-02-02T17:38:07.729Z,5.93
2019-02-02T17:40:37.543Z,5.88
2019-02-02T17:43:07.103Z,6.12
2019-02-02T17:45:36.500Z,6.08
2019-02-02T17:48:06.997Z,6.09
2019-02-02T17:50:36.397Z,6.21
2019-02-02T17:53:06.013Z,6.32
2019-02-02T17:55:35.536Z,6.34
2019-02-02T17:58:08.265Z,6.33
2019-02-02T18:00:45.980Z,6.28
2019-02-02T18:03:15.424Z,6.18
2019-02-02T18:05:44.815Z,6.13
2019-02-02T18:08:14.215Z,6.16
2019-02-02T18:10:43.690Z,6.26
2019-02-02T18:13:13.097Z,6.23
2019-02-02T18:15:42.555Z,6.24
2019-02-02T18:18:11.950Z,6.13
2019-02-02T18:20:41.351Z,6.04
2019-02-02T18:23:10.769Z,5.97
2019-02-02T18:25:40.245Z,6.08
2019-02-02T18:28:09.693Z,6.03
2019-02-02T18:30:39.098Z,5.95
2019-02-02T18:33:08.664Z,6.06
2019-02-02T18:35:38.101Z,6.14
2019-02-02T18:38:07.541Z,5.98
2019-02-02T18:40:39.887Z,5.95
2019-02-02T18:43:08.304Z,6.01
2019-02-02T18:45:37.732Z,5.92
2019-02-02T18:48:07.976Z,5.89
2019-02-02T18:50:37.418Z,5.77
2019-02-02T18:53:07.055Z,5.81
2019-02-02T18:55:49.040Z,5.89
2019-02-02T18:58:18.610Z,5.90
2019-02-02T19:00:48.068Z,5.87
2019-02-02T19:03:18.909Z,5.92
2019-02-02T19:05:48.601Z,5.94
2019-02-02T19:08:18.101Z,5.92
2019-02-02T19:10:47.490Z,5.92
2019-02-02T19:13:17.074Z,5.86
2019-02-02T19:15:46.504Z,5.73
2019-02-02T19:18:15.942Z,5.80
2019-02-02T19:20:45.481Z,5.94
2019-02-02T19:23:24.705Z,5.78
2019-02-02T19:25:46.172Z,5.85
2019-02-02T19:28:15.821Z,5.85
2019-02-02T19:30:45.229Z,5.68
2019-02-02T19:33:16.586Z,5.57
2019-02-02T19:35:45.992Z,5.60
2019-02-02T19:38:15.844Z,5.65
2019-02-02T19:40:45.479Z,5.61
2019-02-02T19:43:14.922Z,5.61
2019-02-02T19:45:44.391Z,5.54
2019-02-02T19:48:13.787Z,5.34
2019-02-02T19:50:43.269Z,5.32
2019-02-02T19:53:12.734Z,5.42
2019-02-02T19:55:42.167Z,5.39
2019-02-02T19:58:11.759Z,5.39
2019-02-02T20:00:41.214Z,5.45
2019-02-02T20:03:10.624Z,5.41
2019-02-02T20:05:40.589Z,5.39
2019-02-02T20:08:10.011Z,5.40
2019-02-02T20:10:39.479Z,5.32
2019-02-02T20:13:08.897Z,5.41
2019-02-02T20:15:38.424Z,5.34
2019-02-02T20:18:10.279Z,5.52
2019-02-02T20:20:39.190Z,5.53
2019-02-02T20:23:08.654Z,5.59
2019-02-02T20:25:38.106Z,5.62
2019-02-02T20:28:07.838Z,5.64
2019-02-02T20:30:37.322Z,5.69
2019-02-02T20:33:07.021Z,5.70
2019-02-02T20:35:42.106Z,5.73
2019-02-02T20:38:08.620Z,5.68
2019-02-02T20:40:38.047Z,5.80
2019-02-02T20:43:07.457Z,5.72
2019-02-02T20:45:37.565Z,5.82
2019-02-02T20:48:07.331Z,5.76
2019-02-02T20:50:36.739Z,5.63
2019-02-02T20:53:06.271Z,5.67
2019-02-02T20:55:38.582Z,5.72
2019-02-02T20:58:08.162Z,5.78
2019-02-02T21:00:38.212Z,5.86
2019-02-02T21:03:08.030Z,5.72
2019-02-02T21:05:37.609Z,5.60
2019-02-02T21:08:07.548Z,5.70
2019-02-02T21:10:36.927Z,5.82
2019-02-02T21:13:06.537Z,5.80
2019-02-02T21:15:35.975Z,5.57
2019-02-02T21:18:05.886Z,5.65
2019-02-02T21:20:35.620Z,5.81
2019-02-02T21:23:05.302Z,5.76
2019-02-02T21:25:34.918Z,5.76
2019-02-02T21:28:07.151Z,5.95
2019-02-02T21:30:36.817Z,5.90
2019-02-02T21:33:07.024Z,5.86
2019-02-02T21:35:36.572Z,5.90
2019-02-02T21:38:06.795Z,5.89
2019-02-02T21:40:36.608Z,6.03
2019-02-02T21:43:08.131Z,6.07
2019-02-02T21:45:38.607Z,6.09
2019-02-02T21:48:08.039Z,6.09
2019-02-02T21:50:37.432Z,6.12
2019-02-02T21:53:07.014Z,6.16
2019-02-02T21:55:36.431Z,6.01
2019-02-02T21:58:06.121Z,5.90
2019-02-02T22:00:38.165Z,5.94
2019-02-02T22:03:08.222Z,5.82
2019-02-02T22:05:37.632Z,5.72
2019-02-02T22:08:08.464Z,5.78
2019-02-02T22:10:38.384Z,5.84
2019-02-02T22:13:08.591Z,5.96
2019-02-02T22:15:38.568Z,5.83
2019-02-02T22:18:07.988Z,5.77
2019-02-02T22:20:37.654Z,5.64
2019-02-02T22:23:07.085Z,5.63
2019-02-02T22:25:36.673Z,5.77
2019-02-02T22:28:06.312Z,5.83
2019-02-02T22:30:37.123Z,5.91
2019-02-02T22:33:06.994Z,5.97
2019-02-02T22:35:36.511Z,5.99
2019-02-02T22:38:06.131Z,6.04
2019-02-02T22:40:35.598Z,5.92
2019-02-02T22:43:05.669Z,5.86
2019-02-02T22:45:35.095Z,5.77
2019-02-02T22:48:07.655Z,5.86
2019-02-02T22:50:37.086Z,5.92
2019-02-02T22:53:06.849Z,5.93
2019-02-02T22:55:36.483Z,5.93
2019-02-02T22:58:06.174Z,5.83
2019-02-02T23:01:04.428Z,5.95
2019-02-02T23:03:37.148Z,6.07
2019-02-02T23:06:39.274Z,6.02
2019-02-02T23:09:47.947Z,5.96
2019-02-02T23:12:30.984Z,6.12
2019-02-02T23:15:21.456Z,5.99
2019-02-02T23:17:50.884Z,5.96
2019-02-02T23:20:20.273Z,6.11
2019-02-02T23:22:49.683Z,6.11
2019-02-02T23:25:19.110Z,6.06
2019-02-02T23:27:48.505Z,5.99
2019-02-02T23:30:18.516Z,5.96
2019-02-02T23:32:47.956Z,5.71
2019-02-02T23:35:17.396Z,5.78
2019-02-02T23:37:46.999Z,5.66
2019-02-02T23:40:16.460Z,5.55
2019-02-02T23:42:46.284Z,5.84
2019-02-02T23:45:15.799Z,5.95
2019-02-02T23:47:45.222Z,6.05
2019-02-02T23:50:14.602Z,5.97
2019-02-02T23:52:44.143Z,5.77
2019-02-02T23:55:13.845Z,5.56
2019-02-02T23:57:43.458Z,5.62
